Time;durP1;ratioP1;P1;durP2;ratioP2;P2;SDS_P1;SDS_P2;PMS_P1;PMS_P2;Temp;Humidity;BMP_temperature;BMP_pressure;BME280_temperature;BME280_humidity;BME280_pressure;Samples;Min_cycle;Max_cycle;Signal;HPM_P1;HPM_P2
2022/01/31 00:01:31;;;;;;;;;9.25;9.25;;;;;8.39;58.49;101548.47;5057120;28;45552;-52
2022/01/31 00:03:56;;;;;;;;;12.75;9.00;;;;;8.33;59.19;101540.66;5056553;28;50643;-49
2022/01/31 00:06:22;;;;;;;;;14.75;12.75;;;;;8.28;58.59;101524.13;5056573;28;55378;-49
2022/01/31 00:08:48;;;;;;;;;11.75;11.75;;;;;8.33;59.28;101530.19;5056935;28;45456;-48
2022/01/31 00:11:13;;;;;;;;;14.25;10.75;;;;;8.37;58.79;101524.84;5056854;28;45526;-49
2022/01/31 00:13:43;;;;;;;;;13.75;11.50;;;;;8.34;58.52;101516.19;5056432;28;45426;-52
2022/01/31 00:16:14;;;;;;;;;11.25;9.25;;;;;8.32;59.34;101483.88;5056495;28;45422;-52
2022/01/31 00:18:40;;;;;;;;;7.25;6.25;;;;;8.37;58.38;101495.16;5056549;28;45434;-51
2022/01/31 00:21:06;;;;;;;;;7.00;7.00;;;;;8.45;58.04;101492.50;5055479;28;45564;-50
2022/01/31 00:23:31;;;;;;;;;10.75;8.25;;;;;8.44;58.48;101469.78;5056682;28;45464;-53
2022/01/31 00:25:56;;;;;;;;;11.25;9.25;;;;;8.45;57.84;101467.13;5056609;28;45390;-49
2022/01/31 00:28:22;;;;;;;;;6.00;6.00;;;;;8.47;57.19;101470.63;5056550;28;45388;-50
2022/01/31 00:30:47;;;;;;;;;7.50;7.50;;;;;8.49;56.97;101487.19;5057019;28;45517;-54
2022/01/31 00:33:13;;;;;;;;;6.00;6.00;;;;;8.39;56.92;101481.19;5056275;28;47370;-55
2022/01/31 00:35:39;;;;;;;;;11.25;6.00;;;;;8.39;57.15;101462.84;5056478;28;45514;-52
2022/01/31 00:38:04;;;;;;;;;9.25;5.00;;;;;8.36;56.79;101469.84;5056384;28;45390;-50
2022/01/31 00:40:30;;;;;;;;;8.00;6.50;;;;;8.26;56.99;101442.00;5056615;28;45687;-54
2022/01/31 00:42:55;;;;;;;;;8.00;5.50;;;;;8.31;57.41;101450.69;5056126;28;45386;-49
2022/01/31 00:45:26;;;;;;;;;9.25;8.25;;;;;8.35;57.46;101460.25;5056231;28;45465;-51
2022/01/31 00:48:03;;;;;;;;;7.25;4.50;;;;;8.35;57.46;101460.25;5056464;28;45530;-51
2022/01/31 00:50:36;;;;;;;;;5.50;3.75;;;;;8.32;56.91;101461.13;5056235;28;45603;-49
2022/01/31 00:53:02;;;;;;;;;4.00;2.50;;;;;8.32;56.99;101473.38;5054726;28;45459;-47
2022/01/31 00:55:27;;;;;;;;;6.75;5.50;;;;;8.29;57.30;101463.81;5055827;28;45548;-51
2022/01/31 00:57:52;;;;;;;;;3.00;3.00;;;;;8.32;56.90;101476.88;5056260;28;45512;-50
2022/01/31 01:00:18;;;;;;;;;7.50;4.50;;;;;8.25;57.29;101454.25;5055882;28;48641;-45
2022/01/31 01:02:44;;;;;;;;;3.33;3.33;;;;;8.30;57.29;101464.66;5055738;28;48996;-50
2022/01/31 01:05:09;;;;;;;;;3.75;3.50;;;;;8.36;57.52;101457.59;5055782;28;45424;-50
2022/01/31 01:07:35;;;;;;;;;7.00;4.67;;;;;8.32;57.43;101436.69;5056236;28;45448;-51
2022/01/31 01:10:00;;;;;;;;;7.33;3.00;;;;;8.26;56.85;101418.44;5056000;28;45480;-52
2022/01/31 01:12:25;;;;;;;;;4.00;4.00;;;;;8.22;57.63;101406.25;5055855;28;45447;-52
2022/01/31 01:14:52;;;;;;;;;4.00;3.00;;;;;8.30;56.90;101422.72;5055695;28;45529;-53
2022/01/31 01:17:17;;;;;;;;;5.00;3.00;;;;;8.28;57.91;101421.91;5055882;28;45459;-49
2022/01/31 01:19:43;;;;;;;;;6.00;3.75;;;;;8.27;57.76;101401.81;5055748;28;45541;-53
2022/01/31 01:22:09;;;;;;;;;5.33;5.33;;;;;8.32;58.03;101413.97;5055691;28;46167;-52
2022/01/31 01:24:34;;;;;;;;;2.00;2.00;;;;;8.32;57.63;101405.25;5055689;28;45973;-51
2022/01/31 01:27:00;;;;;;;;;4.00;2.33;;;;;8.32;58.42;101400.84;5055730;28;45429;-50
2022/01/31 01:29:25;;;;;;;;;3.25;3.25;;;;;8.38;58.21;101405.16;5054626;28;45431;-51
2022/01/31 01:31:51;;;;;;;;;4.00;4.00;;;;;8.44;57.86;101386.78;5055306;28;45423;-49
2022/01/31 01:34:17;;;;;;;;;4.00;4.00;;;;;8.44;58.19;101363.19;5055758;28;45438;-48
2022/01/31 01:36:45;;;;;;;;;5.00;5.00;;;;;8.47;58.01;101352.66;5055605;28;45428;-50
2022/01/31 01:39:11;;;;;;;;;3.00;3.00;;;;;8.51;58.59;101351.69;5055437;28;45522;-46
2022/01/31 01:41:37;;;;;;;;;5.50;5.50;;;;;8.49;58.18;101329.91;5055492;28;45422;-51
2022/01/31 01:44:03;;;;;;;;;3.33;2.33;;;;;8.55;57.81;101342.06;5055236;28;45434;-50
2022/01/31 01:46:28;;;;;;;;;6.00;2.67;;;;;8.48;58.23;101322.06;5055476;28;45414;-47
2022/01/31 01:48:53;;;;;;;;;6.00;2.67;;;;;8.53;58.69;101335.97;5055646;28;45614;-52
2022/01/31 01:51:19;;;;;;;;;6.00;4.00;;;;;8.51;59.48;101328.09;5055008;28;46227;-51
2022/01/31 01:53:44;;;;;;;;;6.67;2.33;;;;;8.40;59.67;101319.53;5055222;28;45363;-48
2022/01/31 01:56:10;;;;;;;;;5.33;3.00;;;;;8.42;59.87;101327.41;5055524;28;45414;-51
2022/01/31 01:58:41;;;;;;;;;3.00;3.00;;;;;8.38;60.14;101332.66;5055225;28;45674;-49
2022/01/31 02:01:07;;;;;;;;;3.67;3.00;;;;;8.37;60.00;101340.53;5055321;28;45459;-47
2022/01/31 02:03:35;;;;;;;;;2.67;2.67;;;;;8.32;60.88;101342.34;5055014;28;45533;-53
2022/01/31 02:06:01;;;;;;;;;5.67;3.00;;;;;8.37;60.79;101349.25;5055106;28;45437;-50
2022/01/31 02:08:28;;;;;;;;;5.50;3.25;;;;;8.38;60.73;101332.66;5055211;28;45430;-53
2022/01/31 02:10:54;;;;;;;;;2.00;2.00;;;;;8.42;60.66;101312.53;5055038;28;46031;-49
2022/01/31 02:13:20;;;;;;;;;3.25;3.25;;;;;8.42;60.89;101323.00;5054834;28;45430;-48
2022/01/31 02:15:49;;;;;;;;;7.33;6.00;;;;;8.45;61.19;101312.47;5055186;28;45417;-49
2022/01/31 02:18:16;;;;;;;;;3.67;3.67;;;;;8.47;60.62;101322.94;5071051;27;45421;-50
2022/01/31 02:20:42;;;;;;;;;4.00;2.67;;;;;8.50;61.32;101313.28;5054791;28;46014;-50
2022/01/31 02:23:10;;;;;;;;;4.00;2.33;;;;;8.51;60.99;101294.03;5055033;28;45353;-48
2022/01/31 02:25:53;;;;;;;;;3.67;3.67;;;;;8.47;61.54;101294.13;5053620;28;45479;-50
2022/01/31 02:28:20;;;;;;;;;3.00;3.00;;;;;8.50;61.95;101291.44;5054838;28;45452;-51
2022/01/31 02:30:45;;;;;;;;;3.67;3.67;;;;;8.54;61.81;101307.13;5054818;28;45437;-53
2022/01/31 02:33:11;;;;;;;;;3.67;3.67;;;;;8.50;62.19;101289.69;5054741;28;45509;-49
2022/01/31 02:35:36;;;;;;;;;3.00;2.00;;;;;8.48;61.84;101274.88;5055093;28;45453;-51
2022/01/31 02:38:02;;;;;;;;;3.00;2.00;;;;;8.46;62.28;101271.41;5054830;28;45457;-52
2022/01/31 02:40:28;;;;;;;;;2.67;2.67;;;;;8.41;62.60;101263.63;5057252;28;45532;-50
2022/01/31 02:42:53;;;;;;;;;4.00;3.00;;;;;8.49;62.14;101271.34;5058436;28;45479;-51
2022/01/31 02:45:18;;;;;;;;;5.33;3.67;;;;;8.51;62.35;101272.19;5058375;28;45581;-51
2022/01/31 02:47:51;;;;;;;;;2.00;1.67;;;;;8.49;62.63;101267.00;5057148;28;45566;-50
2022/01/31 02:50:17;;;;;;;;;7.33;2.67;;;;;8.50;63.60;101250.34;5057555;28;46334;-49
2022/01/31 02:52:47;;;;;;;;;4.33;4.33;;;;;8.43;63.41;101229.50;5057998;28;45435;-51
2022/01/31 02:55:14;;;;;;;;;2.00;2.00;;;;;8.49;63.57;101227.66;5058473;28;45350;-49
2022/01/31 02:57:39;;;;;;;;;2.33;2.00;;;;;8.54;63.88;101262.53;5058058;28;45457;-50
2022/01/31 03:00:07;;;;;;;;;3.00;3.00;;;;;8.51;64.57;101231.09;5057791;28;46201;-49
2022/01/31 03:02:33;;;;;;;;;2.33;2.00;;;;;8.50;65.05;101237.25;5058052;28;45568;-49
2022/01/31 03:04:58;;;;;;;;;2.00;2.00;;;;;8.50;64.90;101231.16;5057667;28;45999;-49
2022/01/31 03:07:23;;;;;;;;;3.67;3.67;;;;;8.48;65.97;101194.47;5057974;28;45604;-51
2022/01/31 03:09:49;;;;;;;;;1.00;1.00;;;;;8.47;67.04;101220.72;5057894;28;45476;-51
2022/01/31 03:12:14;;;;;;;;;1.00;1.00;;;;;8.47;66.32;101202.38;5057727;28;45327;-49
2022/01/31 03:14:42;;;;;;;;;1.00;1.00;;;;;8.51;66.30;101199.66;5058043;28;45493;-52
2022/01/31 03:17:08;;;;;;;;;4.33;3.33;;;;;8.55;66.63;101196.09;5057999;28;45564;-50
2022/01/31 03:19:38;;;;;;;;;3.00;2.00;;;;;8.48;66.93;101176.13;5057772;28;45473;-52
2022/01/31 03:22:04;;;;;;;;;2.00;0.00;;;;;8.38;67.48;101156.16;5057507;28;45390;-47
2022/01/31 03:24:30;;;;;;;;;3.00;2.00;;;;;8.49;67.38;101185.72;5056465;28;45435;-51
2022/01/31 03:26:55;;;;;;;;;3.33;1.00;;;;;8.47;68.16;101186.66;5057902;28;45359;-47
2022/01/31 03:29:20;;;;;;;;;2.00;2.00;;;;;8.48;67.67;101168.25;5057331;28;46433;-50
2022/01/31 03:31:46;;;;;;;;;3.00;1.67;;;;;8.31;68.73;101171.13;5057635;28;45493;-48
2022/01/31 03:34:11;;;;;;;;;1.00;1.00;;;;;8.44;68.85;101190.19;5057707;28;45406;-47
2022/01/31 03:36:36;;;;;;;;;1.00;1.00;;;;;8.49;68.82;101204.06;5057490;28;45351;-51
2022/01/31 03:39:03;;;;;;;;;1.67;1.67;;;;;8.56;68.59;101200.44;5057260;28;46018;-48
2022/01/31 03:41:28;;;;;;;;;2.33;1.33;;;;;8.53;68.58;101184.75;5057434;28;45538;-53
2022/01/31 03:43:53;;;;;;;;;2.33;2.33;;;;;8.60;68.93;101182.91;5057534;28;45957;-50
2022/01/31 03:46:19;;;;;;;;;3.00;2.00;;;;;8.56;69.47;101170.75;5057611;28;45465;-50
2022/01/31 03:48:45;;;;;;;;;1.00;1.00;;;;;8.54;70.82;101169.91;5057322;28;45999;-51
2022/01/31 03:51:11;;;;;;;;;4.00;2.00;;;;;8.52;70.22;101155.97;5056508;28;45568;-54
2022/01/31 03:53:37;;;;;;;;;2.00;1.00;;;;;8.56;69.95;101161.13;5057455;28;45514;-54
2022/01/31 03:56:02;;;;;;;;;2.00;2.00;;;;;8.58;70.82;101171.59;5057626;28;45494;-52
2022/01/31 03:58:28;;;;;;;;;0.00;0.00;;;;;8.55;71.90;101141.03;5057212;28;45443;-52
2022/01/31 04:00:53;;;;;;;;;1.00;1.00;;;;;8.52;71.59;101137.63;5057286;28;45390;-52
2022/01/31 04:03:19;;;;;;;;;0.00;0.00;;;;;8.52;72.27;101137.63;5057056;28;47908;-50
2022/01/31 04:05:44;;;;;;;;;0.67;0.67;;;;;8.46;73.29;101135.94;5057333;28;45357;-50
2022/01/31 04:08:12;;;;;;;;;1.33;1.33;;;;;8.49;73.85;101166.50;5057177;28;45933;-49
2022/01/31 04:10:38;;;;;;;;;2.33;2.33;;;;;8.45;73.79;101180.56;5057120;28;45342;-48
2022/01/31 04:13:06;;;;;;;;;0.00;0.00;;;;;8.50;73.84;101186.59;5057128;28;45529;-53
2022/01/31 04:15:32;;;;;;;;;1.00;1.00;;;;;8.42;74.26;101170.13;5056854;28;45509;-54
2022/01/31 04:17:57;;;;;;;;;1.00;1.00;;;;;8.47;74.08;101173.53;5056831;28;45485;-50
2022/01/31 04:20:22;;;;;;;;;1.00;1.00;;;;;8.50;74.31;101190.06;5056614;28;45532;-48
2022/01/31 04:22:55;;;;;;;;;1.33;1.33;;;;;8.50;74.10;101171.72;5057019;28;45898;-48
2022/01/31 04:25:29;;;;;;;;;2.00;1.00;;;;;8.57;74.07;101185.56;5056960;28;45708;-49
2022/01/31 04:28:02;;;;;;;;;0.00;0.00;;;;;8.56;73.81;101186.47;5056421;28;47263;-47
2022/01/31 04:30:35;;;;;;;;;0.00;0.00;;;;;8.59;73.18;101176.78;5055266;28;45412;-51
2022/01/31 04:33:01;;;;;;;;;1.00;1.00;;;;;8.60;73.87;101180.28;5056632;28;45397;-52
2022/01/31 04:35:26;;;;;;;;;2.00;2.00;;;;;8.56;73.07;101173.38;5056703;28;45372;-46
2022/01/31 04:37:52;;;;;;;;;1.00;1.00;;;;;8.53;73.99;101173.41;5055125;28;46344;-49
2022/01/31 04:40:17;;;;;;;;;2.00;2.00;;;;;8.51;74.23;101190.94;5056452;28;45391;-49
2022/01/31 04:42:44;;;;;;;;;3.33;2.00;;;;;8.53;74.12;101203.13;5056687;28;45394;-54
2022/01/31 04:45:10;;;;;;;;;0.67;0.67;;;;;8.53;73.34;101191.78;5056600;28;45445;-50
2022/01/31 04:47:36;;;;;;;;;1.00;1.00;;;;;8.53;73.71;101178.66;5056324;28;46052;-49
2022/01/31 04:50:04;;;;;;;;;1.00;1.00;;;;;8.50;73.71;101176.97;5056291;28;45462;-50
2022/01/31 04:52:29;;;;;;;;;1.00;1.00;;;;;8.48;73.74;101165.63;5056433;28;45537;-51
2022/01/31 04:54:54;;;;;;;;;1.00;1.00;;;;;8.53;73.58;101163.78;5056519;28;45488;-45
2022/01/31 04:57:20;;;;;;;;;1.67;1.67;;;;;8.56;74.05;101155.88;5056187;28;45442;-46
2022/01/31 04:59:45;;;;;;;;;5.00;2.00;;;;;8.52;73.87;101154.22;5056237;28;45591;-48
2022/01/31 05:02:10;;;;;;;;;1.00;1.00;;;;;8.50;74.47;101176.09;5056297;28;45783;-49
2022/01/31 05:04:36;;;;;;;;;0.00;0.00;;;;;8.47;74.66;101178.78;5056347;28;45544;-48
2022/01/31 05:07:01;;;;;;;;;1.33;1.33;;;;;8.47;74.11;101190.13;5056065;28;45409;-51
2022/01/31 05:09:27;;;;;;;;;3.00;2.00;;;;;8.46;73.99;101187.50;5056048;28;45533;-49
2022/01/31 05:11:52;;;;;;;;;2.00;2.00;;;;;8.43;72.52;101177.94;5056094;28;45458;-46
2022/01/31 05:14:18;;;;;;;;;1.00;1.00;;;;;8.47;71.85;101176.16;5056165;28;45334;-49
2022/01/31 05:16:43;;;;;;;;;1.00;1.00;;;;;8.51;70.52;101194.41;5055797;28;45427;-45
2022/01/31 05:19:08;;;;;;;;;5.33;1.67;;;;;8.58;71.24;101192.56;5055943;28;45553;-50
2022/01/31 05:21:34;;;;;;;;;1.00;1.00;;;;;8.64;69.70;101202.94;5056040;28;45410;-46
2022/01/31 05:23:59;;;;;;;;;1.00;1.00;;;;;8.66;69.35;101189.81;5055826;28;45449;-49
2022/01/31 05:26:25;;;;;;;;;3.67;1.00;;;;;8.67;69.43;101192.38;5055590;28;45501;-48
2022/01/31 05:28:50;;;;;;;;;7.00;3.00;;;;;8.69;69.25;101203.72;5054251;28;45510;-51
2022/01/31 05:31:17;;;;;;;;;4.00;2.33;;;;;8.60;68.17;101188.16;5055738;28;45390;-48
2022/01/31 05:33:43;;;;;;;;;2.00;2.00;;;;;8.66;67.39;101206.41;5055512;28;45555;-50
2022/01/31 05:36:08;;;;;;;;;1.67;1.67;;;;;8.60;66.59;101207.38;5055400;28;53773;-48
2022/01/31 05:38:37;;;;;;;;;0.67;0.00;;;;;8.62;65.71;101210.84;5055450;28;45373;-48
2022/01/31 05:41:06;;;;;;;;;2.33;2.00;;;;;8.63;64.60;101204.69;5055605;28;45419;-46
2022/01/31 05:43:31;;;;;;;;;4.00;1.00;;;;;8.66;64.45;101210.78;5055578;28;45497;-47
2022/01/31 05:45:56;;;;;;;;;2.67;2.67;;;;;8.67;64.54;101220.38;5055274;28;46030;-47
2022/01/31 05:48:22;;;;;;;;;0.67;0.67;;;;;8.62;64.04;101199.47;5055477;28;45478;-46
2022/01/31 05:50:47;;;;;;;;;2.00;2.00;;;;;8.60;63.95;101189.03;5055470;28;45449;-49
2022/01/31 05:53:13;;;;;;;;;4.00;1.33;;;;;8.56;62.86;101189.09;5054037;28;45575;-49
2022/01/31 05:55:40;;;;;;;;;2.00;1.00;;;;;8.57;63.38;101210.06;5055330;28;45451;-49
2022/01/31 05:58:05;;;;;;;;;2.00;0.67;;;;;8.57;63.02;101209.16;5055476;28;45391;-48
2022/01/31 06:00:31;;;;;;;;;2.00;0.00;;;;;8.60;62.77;101211.75;5055295;28;45461;-47
2022/01/31 06:02:58;;;;;;;;;2.00;2.00;;;;;8.61;62.65;101180.25;5055290;28;45383;-49
2022/01/31 06:05:24;;;;;;;;;1.00;1.00;;;;;8.54;62.48;101197.00;5055302;28;46394;-48
2022/01/31 06:07:50;;;;;;;;;2.33;2.33;;;;;8.53;61.87;101191.78;5055138;28;45445;-54
2022/01/31 06:10:16;;;;;;;;;2.00;2.00;;;;;8.49;61.50;101208.44;5055207;28;45787;-49
2022/01/31 06:12:42;;;;;;;;;1.00;1.00;;;;;8.52;61.84;101204.03;5055342;28;45540;-52
2022/01/31 06:15:08;;;;;;;;;2.00;1.00;;;;;8.50;61.72;101208.41;5056841;28;45497;-51
2022/01/31 06:17:33;;;;;;;;;2.67;2.00;;;;;8.51;61.87;101198.78;5057390;28;45443;-51
2022/01/31 06:19:58;;;;;;;;;2.00;2.00;;;;;8.54;62.01;101201.34;5058986;28;45370;-49
2022/01/31 06:22:24;;;;;;;;;1.67;1.67;;;;;8.53;62.30;101213.59;5058245;28;49996;-48
2022/01/31 06:24:49;;;;;;;;;2.00;2.00;;;;;8.53;61.86;101228.47;5058422;28;46621;-48
2022/01/31 06:27:16;;;;;;;;;3.00;1.67;;;;;8.55;62.42;101219.69;5056717;28;45462;-47
2022/01/31 06:29:41;;;;;;;;;4.00;2.00;;;;;8.59;61.54;101223.13;5058557;28;45500;-52
2022/01/31 06:32:07;;;;;;;;;1.67;1.67;;;;;8.55;61.30;101213.59;5058185;28;45603;-51
2022/01/31 06:34:32;;;;;;;;;0.33;0.33;;;;;8.48;61.57;101209.34;5058193;28;45490;-50
2022/01/31 06:37:02;;;;;;;;;3.33;1.67;;;;;8.51;61.64;101215.38;5058467;28;45430;-52
2022/01/31 06:39:27;;;;;;;;;0.33;0.33;;;;;8.50;60.56;101224.16;5058306;28;45453;-48
2022/01/31 06:41:53;;;;;;;;;2.00;2.00;;;;;8.49;61.18;101230.28;5058350;28;45431;-51
2022/01/31 06:44:19;;;;;;;;;6.67;2.67;;;;;8.54;61.06;101214.47;5058046;28;45462;-53
2022/01/31 06:46:44;;;;;;;;;3.67;1.67;;;;;8.50;60.99;101210.19;5058131;28;45493;-50
2022/01/31 06:49:09;;;;;;;;;2.33;1.67;;;;;8.54;61.29;101217.97;5058206;28;45361;-52
2022/01/31 06:51:35;;;;;;;;;1.00;1.00;;;;;8.49;60.46;101229.41;5058193;28;45448;-51
2022/01/31 06:54:01;;;;;;;;;2.33;2.00;;;;;8.47;60.99;101239.94;5058215;28;45365;-49
2022/01/31 06:56:30;;;;;;;;;0.67;0.67;;;;;8.47;60.73;101224.19;5058020;28;45418;-53
2022/01/31 06:58:56;;;;;;;;;1.67;1.67;;;;;8.42;60.99;101230.41;5058234;28;45426;-48
2022/01/31 07:01:25;;;;;;;;;3.00;2.00;;;;;8.41;60.68;101232.19;5056668;28;45683;-51
2022/01/31 07:03:51;;;;;;;;;2.00;2.00;;;;;8.34;61.02;101217.41;5057799;28;46085;-50
2022/01/31 07:06:16;;;;;;;;;7.00;2.33;;;;;8.35;60.46;101234.84;5057936;28;45445;-50
2022/01/31 07:08:41;;;;;;;;;2.33;2.33;;;;;8.36;60.72;101254.94;5057847;28;45418;-52
2022/01/31 07:11:07;;;;;;;;;1.33;1.33;;;;;8.34;60.47;101256.72;5057900;28;45366;-48
2022/01/31 07:15:58;;;;;;;;;1.00;1.00;;;;;8.30;60.51;101241.91;5057783;28;45363;-51
2022/01/31 07:18:23;;;;;;;;;1.00;1.00;;;;;8.33;61.02;101249.75;5057570;28;46696;-51
2022/01/31 07:20:51;;;;;;;;;6.25;6.00;;;;;8.27;60.78;101245.44;5057284;28;48881;-50
2022/01/31 07:23:23;;;;;;;;;2.33;2.33;;;;;8.24;60.74;101249.88;5057533;28;46221;-50
2022/01/31 07:25:49;;;;;;;;;6.00;3.00;;;;;8.26;60.22;101267.31;5054511;28;45688;-50
2022/01/31 07:28:19;;;;;;;;;7.00;6.00;;;;;8.13;60.61;101248.28;5057107;28;45571;-50
2022/01/31 07:30:47;;;;;;;;;1.33;1.33;;;;;8.25;60.05;101275.16;5057292;28;45466;-48
2022/01/31 07:33:14;;;;;;;;;2.00;2.00;;;;;8.21;60.30;101265.66;5057172;28;46200;-52
2022/01/31 07:35:41;;;;;;;;;1.00;1.00;;;;;8.24;59.94;101270.84;5057127;28;45640;-51
2022/01/31 07:38:06;;;;;;;;;2.00;1.00;;;;;8.17;60.25;101263.06;5057390;28;45362;-52
2022/01/31 07:40:32;;;;;;;;;2.00;2.00;;;;;8.23;59.75;101269.13;5057253;28;45680;-52
2022/01/31 07:42:57;;;;;;;;;3.00;3.00;;;;;8.26;60.39;101263.81;5057261;28;46190;-50
2022/01/31 07:45:22;;;;;;;;;2.00;1.00;;;;;8.27;60.03;101270.78;5057333;28;45446;-52
2022/01/31 07:47:48;;;;;;;;;4.33;1.00;;;;;8.31;60.10;101277.72;5057418;28;45424;-50
2022/01/31 07:50:13;;;;;;;;;1.67;1.00;;;;;8.34;59.88;101278.53;5057405;28;45477;-52
2022/01/31 07:52:40;;;;;;;;;5.33;2.00;;;;;8.30;59.49;101284.72;5057061;28;46013;-50
2022/01/31 07:55:06;;;;;;;;;2.00;2.00;;;;;8.37;59.07;101282.88;5057027;28;45338;-53
2022/01/31 07:57:32;;;;;;;;;2.67;2.00;;;;;8.30;59.55;101289.06;5057058;28;45446;-52
2022/01/31 07:59:57;;;;;;;;;4.50;3.25;;;;;8.36;58.91;101307.34;5057343;28;45381;-49
2022/01/31 08:02:23;;;;;;;;;2.67;2.00;;;;;8.38;58.84;101308.16;5057003;28;45675;-52
2022/01/31 08:04:49;;;;;;;;;1.00;1.00;;;;;8.35;58.93;101316.94;5055554;28;45539;-47
2022/01/31 08:07:16;;;;;;;;;2.00;1.00;;;;;8.42;59.73;101317.78;5057045;28;45754;-49
2022/01/31 08:09:41;;;;;;;;;3.00;3.00;;;;;8.43;59.24;101322.13;5057069;28;45623;-52
2022/01/31 08:12:07;;;;;;;;;1.33;1.33;;;;;8.40;58.37;101316.91;5056631;28;45441;-50
2022/01/31 08:14:33;;;;;;;;;2.00;2.00;;;;;8.39;58.88;101321.31;5056973;28;45486;-52
2022/01/31 08:16:58;;;;;;;;;2.67;2.00;;;;;8.40;58.50;101324.78;5056916;28;45695;-54
2022/01/31 08:19:23;;;;;;;;;3.00;2.00;;;;;8.45;58.79;101343.06;5056943;28;45530;-52
2022/01/31 08:21:49;;;;;;;;;7.33;3.00;;;;;8.46;58.55;101337.78;5056626;28;45444;-50
2022/01/31 08:24:14;;;;;;;;;1.33;1.33;;;;;8.32;59.37;101305.66;5055325;28;45395;-50
2022/01/31 08:26:40;;;;;;;;;2.67;2.00;;;;;8.47;59.82;101333.44;5056660;28;45388;-55
2022/01/31 08:29:19;;;;;;;;;2.00;2.00;;;;;8.44;59.84;101325.63;5056770;28;45374;-53
2022/01/31 08:31:46;;;;;;;;;2.00;2.00;;;;;8.43;59.96;101309.00;5055023;28;46787;-49
2022/01/31 08:36:42;;;;;;;;;2.33;2.00;;;;;8.55;59.89;101316.69;5056352;28;45362;-48
2022/01/31 08:39:18;;;;;;;;;1.00;1.00;;;;;8.50;59.86;101313.28;5056062;28;45416;-48
2022/01/31 08:41:46;;;;;;;;;4.00;3.00;;;;;8.60;59.80;101333.22;5056265;28;45508;-52
2022/01/31 08:44:14;;;;;;;;;4.00;4.00;;;;;8.58;60.19;101315.78;5056224;28;45468;-49
2022/01/31 08:46:40;;;;;;;;;2.00;2.00;;;;;8.57;59.81;101306.16;5056445;28;45443;-50
2022/01/31 08:49:10;;;;;;;;;4.33;4.33;;;;;8.62;60.51;101320.06;5056311;28;45659;-47
2022/01/31 08:51:37;;;;;;;;;2.00;2.00;;;;;8.62;60.39;101341.94;5055772;28;45997;-51
2022/01/31 08:54:06;;;;;;;;;2.33;2.00;;;;;8.60;59.76;101354.19;5055889;28;45492;-50
2022/01/31 08:56:35;;;;;;;;;3.00;3.00;;;;;8.59;60.46;101347.22;5056462;28;45450;-52
2022/01/31 08:59:02;;;;;;;;;5.50;5.00;;;;;8.64;60.36;101376.00;5054883;28;45502;-49
2022/01/31 09:01:28;;;;;;;;;2.67;2.67;;;;;8.52;60.41;101379.66;5055866;28;46221;-52
2022/01/31 09:04:00;;;;;;;;;4.00;2.00;;;;;8.60;60.08;101361.22;5055936;28;45434;-51
2022/01/31 09:06:29;;;;;;;;;3.00;3.00;;;;;8.66;59.42;101349.75;5056171;28;45363;-52
2022/01/31 09:08:57;;;;;;;;;3.00;3.00;;;;;8.66;59.38;101337.50;5055933;28;45604;-50
2022/01/31 09:11:22;;;;;;;;;2.33;2.33;;;;;8.75;59.20;101336.50;5055133;28;45483;-51
2022/01/31 09:13:48;;;;;;;;;5.33;3.00;;;;;8.77;58.94;101350.44;5055604;28;45388;-50
2022/01/31 09:16:13;;;;;;;;;0.67;0.67;;;;;8.79;57.98;101319.84;5055841;28;45386;-50
2022/01/31 09:18:39;;;;;;;;;1.00;1.00;;;;;8.81;58.25;101332.03;5055969;28;45578;-50
2022/01/31 09:21:05;;;;;;;;;3.00;1.00;;;;;8.85;58.11;101324.97;5055718;28;45415;-51
2022/01/31 09:23:31;;;;;;;;;1.00;1.00;;;;;8.82;58.29;101330.25;5055554;28;45469;-51
2022/01/31 09:25:57;;;;;;;;;3.00;3.00;;;;;8.80;57.83;101318.94;5054341;28;45478;-49
2022/01/31 09:28:24;;;;;;;;;3.33;3.33;;;;;8.85;57.87;101333.69;5055549;28;45433;-52
2022/01/31 09:30:52;;;;;;;;;3.50;3.00;;;;;8.85;57.48;101344.19;5055747;28;45426;-49
2022/01/31 09:33:18;;;;;;;;;3.33;3.33;;;;;8.94;58.08;101334.44;5054034;28;45413;-49
2022/01/31 09:35:43;;;;;;;;;4.67;4.67;;;;;9.00;56.93;101347.44;5055480;28;45405;-50
2022/01/31 09:38:12;;;;;;;;;2.00;2.00;;;;;8.95;57.00;101355.41;5055525;28;45632;-50
2022/01/31 09:40:37;;;;;;;;;3.00;1.00;;;;;8.89;56.39;101337.13;5055329;28;45528;-48
2022/01/31 09:45:48;;;;;;;;;5.00;2.67;;;;;8.92;56.74;101339.72;5055879;28;45424;-49
2022/01/31 09:51:12;;;;;;;;;3.00;1.33;;;;;9.13;55.77;101358.59;5055010;28;45829;-52
2022/01/31 09:53:50;;;;;;;;;1.00;1.00;;;;;9.13;55.11;101342.84;5055084;28;45404;-51
2022/01/31 09:56:25;;;;;;;;;1.00;1.00;;;;;9.15;55.40;101331.44;5055365;28;45436;-48
2022/01/31 09:58:52;;;;;;;;;1.00;1.00;;;;;9.14;54.68;101349.84;5055227;28;45484;-49
2022/01/31 10:01:21;;;;;;;;;2.00;1.00;;;;;9.05;54.94;101346.50;5055053;28;46734;-49
2022/01/31 10:03:58;;;;;;;;;3.67;2.67;;;;;9.04;55.14;101360.50;5055044;28;45383;-48
2022/01/31 10:06:25;;;;;;;;;3.67;2.00;;;;;9.02;54.93;101346.53;5055132;28;45425;-50
2022/01/31 10:09:07;;;;;;;;;2.67;1.67;;;;;8.98;55.40;101359.75;5054980;28;45543;-48
2022/01/31 10:11:45;;;;;;;;;3.00;1.33;;;;;9.02;54.91;101361.41;5054656;28;45454;-50
2022/01/31 10:17:02;;;;;;;;;2.67;1.00;;;;;9.01;53.71;101373.66;5054999;28;45370;-50
2022/01/31 10:19:27;;;;;;;;;3.00;1.00;;;;;9.04;52.91;101370.13;5055039;28;45672;-49
2022/01/31 10:21:59;;;;;;;;;2.00;1.00;;;;;9.14;53.17;101376.97;5054524;28;46025;-48
2022/01/31 10:24:25;;;;;;;;;2.33;2.00;;;;;9.20;52.39;101366.34;5055219;28;45413;-50
2022/01/31 10:26:51;;;;;;;;;3.00;2.00;;;;;9.22;52.39;101363.72;5054876;28;45416;-52
2022/01/31 10:29:19;;;;;;;;;0.33;0.33;;;;;9.31;52.28;101360.91;5054692;28;45378;-49
2022/01/31 10:31:55;;;;;;;;;2.33;1.33;;;;;9.37;51.21;101371.28;5054721;28;45530;-52
2022/01/31 10:34:23;;;;;;;;;1.00;1.00;;;;;9.35;52.03;101380.09;5054804;28;45551;-52
2022/01/31 10:36:49;;;;;;;;;2.33;2.00;;;;;9.23;53.92;101384.66;5054864;28;45354;-51
2022/01/31 10:43:23;;;;;;;;;1.67;1.67;;;;;9.06;55.20;101394.59;5053248;28;45537;-50
2022/01/31 10:56:23;;;;;;;;;2.33;1.00;;;;;8.96;55.89;101372.88;5054424;28;45422;-51
2022/01/31 10:59:01;;;;;;;;;1.00;1.00;;;;;9.00;56.09;101392.03;5054379;28;45426;-49
2022/01/31 11:01:27;;;;;;;;;1.00;1.00;;;;;9.00;55.45;101395.56;5056783;28;45417;-50
2022/01/31 11:03:54;;;;;;;;;3.33;2.33;;;;;9.07;54.33;101383.19;5057664;28;45442;-51
2022/01/31 11:06:23;;;;;;;;;1.33;1.33;;;;;9.13;54.00;101411.09;5057497;28;45497;-51
2022/01/31 11:08:48;;;;;;;;;1.67;1.67;;;;;9.04;54.37;101370.13;5056112;28;45396;-47
2022/01/31 11:11:13;;;;;;;;;2.00;2.00;;;;;9.22;54.10;101398.69;5057429;28;45640;-47
2022/01/31 11:13:39;;;;;;;;;2.33;1.00;;;;;9.27;53.81;101401.25;5057538;28;45774;-52
2022/01/31 11:16:09;;;;;;;;;1.67;1.67;;;;;9.27;53.15;101388.97;5057607;28;45351;-51
2022/01/31 11:18:36;;;;;;;;;1.33;1.33;;;;;9.31;53.37;101389.78;5057528;28;45515;-49
2022/01/31 11:21:07;;;;;;;;;2.00;2.00;;;;;9.25;53.02;101379.41;5057596;28;45425;-51
2022/01/31 11:23:38;;;;;;;;;2.33;2.00;;;;;9.30;52.54;101374.94;5057448;28;46082;-49
2022/01/31 11:26:06;;;;;;;;;3.00;0.67;;;;;9.22;51.83;101353.22;5057201;28;45454;-52
2022/01/31 11:28:34;;;;;;;;;3.00;1.33;;;;;9.41;51.75;101390.50;5056937;28;45414;-48
2022/01/31 11:31:02;;;;;;;;;1.00;1.00;;;;;9.38;51.59;101394.03;5057312;28;45472;-53
2022/01/31 11:33:28;;;;;;;;;1.00;1.00;;;;;9.31;52.22;101389.78;5056870;28;45451;-52
2022/01/31 11:35:54;;;;;;;;;3.00;1.67;;;;;9.36;52.92;101410.72;5057165;28;45484;-51
2022/01/31 11:38:21;;;;;;;;;2.67;2.67;;;;;9.23;53.68;101384.66;5057373;28;46030;-51
2022/01/31 11:40:47;;;;;;;;;2.00;1.00;;;;;9.27;53.51;101394.22;5057119;28;45582;-52
2022/01/31 11:43:14;;;;;;;;;0.67;0.67;;;;;9.22;53.82;101395.19;5056985;28;45494;-49
2022/01/31 11:45:41;;;;;;;;;6.33;2.33;;;;;9.12;53.33;101415.47;5057268;28;45466;-48
2022/01/31 11:48:20;;;;;;;;;2.00;2.00;;;;;9.20;54.02;101389.97;5057121;28;45433;-46
2022/01/31 11:50:49;;;;;;;;;4.00;2.33;;;;;9.34;53.93;101394.97;5057095;28;45374;-48
2022/01/31 11:53:15;;;;;;;;;3.67;3.00;;;;;9.40;53.19;101396.63;5054657;28;45529;-51
2022/01/31 11:55:41;;;;;;;;;2.67;2.00;;;;;9.34;53.03;101409.88;5056747;28;45456;-52
2022/01/31 11:58:17;;;;;;;;;1.00;1.00;;;;;9.31;52.86;101425.66;5056995;28;45442;-53
2022/01/31 12:00:44;;;;;;;;;1.00;1.00;;;;;9.23;55.93;101462.53;5055537;28;45443;-51